createdAt,value
2022-10-06T00:01:06.179Z,2.57
2022-10-06T00:03:33.289Z,2.50
2022-10-06T00:06:04.304Z,2.17
2022-10-06T00:08:32.482Z,1.93
2022-10-06T00:10:59.490Z,5.67
2022-10-06T00:13:27.636Z,1.97
2022-10-06T00:15:55.083Z,2.67
2022-10-06T00:18:22.168Z,1.17
2022-10-06T00:21:00.680Z,2.77
2022-10-06T00:23:28.908Z,2.00
2022-10-06T00:25:55.900Z,3.00
2022-10-06T00:28:22.884Z,2.23
2022-10-06T00:30:51.273Z,2.17
2022-10-06T00:33:18.210Z,2.53
2022-10-06T00:35:47.354Z,2.97
2022-10-06T00:38:16.444Z,3.63
2022-10-06T00:40:50.808Z,2.67
2022-10-06T00:43:42.185Z,1.73
2022-10-06T00:46:13.677Z,8.57
2022-10-06T00:48:41.603Z,3.27
2022-10-06T00:51:08.797Z,5.53
2022-10-06T00:53:36.209Z,2.63
2022-10-06T00:56:03.145Z,4.10
2022-10-06T00:58:31.720Z,10.60
2022-10-06T01:00:59.969Z,4.93
2022-10-06T01:03:27.268Z,4.00
2022-10-06T01:05:56.004Z,6.13
2022-10-06T01:08:23.882Z,8.27
2022-10-06T01:10:50.822Z,4.80
2022-10-06T01:13:19.008Z,3.87
2022-10-06T01:16:10.715Z,3.70
2022-10-06T01:18:41.261Z,7.33
2022-10-06T01:21:30.040Z,5.27
2022-10-06T01:23:57.305Z,3.57
2022-10-06T01:26:27.134Z,4.93
2022-10-06T01:28:54.188Z,8.57
2022-10-06T01:31:21.540Z,5.43
2022-10-06T01:33:53.460Z,6.53
2022-10-06T01:36:21.193Z,8.03
2022-10-06T01:38:50.544Z,4.03
2022-10-06T01:41:17.505Z,5.10
2022-10-06T01:43:44.563Z,3.27
2022-10-06T01:46:11.574Z,7.80
2022-10-06T01:48:40.117Z,3.30
2022-10-06T01:51:09.235Z,10.43
2022-10-06T01:53:36.872Z,4.27
2022-10-06T01:56:04.882Z,9.00
2022-10-06T01:58:32.319Z,7.47
2022-10-06T02:01:04.672Z,8.17
2022-10-06T02:03:33.342Z,4.67
2022-10-06T02:06:00.275Z,3.00
2022-10-06T02:08:28.459Z,7.50
2022-10-06T02:10:57.682Z,6.57
2022-10-06T02:13:27.953Z,7.07
2022-10-06T02:15:58.675Z,8.13
2022-10-06T02:18:26.842Z,7.60
2022-10-06T02:20:54.893Z,7.77
2022-10-06T02:23:21.778Z,8.23
2022-10-06T02:25:48.777Z,8.43
2022-10-06T02:28:16.854Z,5.83
2022-10-06T02:30:44.352Z,9.50
2022-10-06T02:33:11.524Z,7.63
2022-10-06T02:35:38.590Z,8.70
2022-10-06T02:38:05.783Z,8.10
2022-10-06T02:40:32.891Z,5.90
2022-10-06T02:42:59.870Z,8.97
2022-10-06T02:45:27.928Z,6.50
2022-10-06T02:47:55.320Z,6.60
2022-10-06T02:50:22.374Z,5.73
2022-10-06T02:52:49.341Z,8.80
2022-10-06T02:55:16.419Z,11.07
2022-10-06T02:57:43.314Z,9.43
2022-10-06T03:00:11.622Z,7.47
2022-10-06T03:02:38.689Z,7.80
2022-10-06T03:05:05.964Z,7.60
2022-10-06T03:07:33.932Z,9.10
2022-10-06T03:10:00.821Z,11.27
2022-10-06T03:12:28.136Z,7.50
2022-10-06T03:14:55.431Z,8.60
2022-10-06T03:17:22.419Z,12.50
2022-10-06T03:19:56.991Z,6.70
2022-10-06T03:22:24.744Z,8.33
2022-10-06T03:24:56.874Z,6.67
2022-10-06T03:27:24.777Z,7.67
2022-10-06T03:29:55.111Z,6.80
2022-10-06T03:32:24.314Z,13.37
2022-10-06T03:34:53.258Z,7.00
2022-10-06T03:37:20.461Z,9.90
2022-10-06T03:39:47.668Z,11.90
2022-10-06T03:42:15.023Z,8.50
2022-10-06T03:44:42.180Z,9.00
2022-10-06T03:47:11.194Z,10.53
2022-10-06T03:49:41.632Z,8.93
2022-10-06T03:52:09.127Z,11.67
2022-10-06T03:54:38.015Z,7.30
2022-10-06T03:57:04.963Z,9.83
2022-10-06T03:59:34.277Z,10.30
2022-10-06T04:02:03.398Z,9.23
2022-10-06T04:04:35.319Z,12.40
2022-10-06T04:07:07.391Z,7.90
2022-10-06T04:09:34.399Z,11.43
2022-10-06T04:12:01.959Z,7.97
2022-10-06T04:14:32.116Z,7.90
2022-10-06T04:17:01.524Z,11.70
2022-10-06T04:19:32.127Z,10.30
2022-10-06T04:21:59.491Z,11.83
2022-10-06T04:24:26.790Z,14.10
2022-10-06T04:27:13.801Z,11.13
2022-10-06T04:29:41.221Z,10.93
2022-10-06T04:32:08.646Z,9.23
2022-10-06T04:34:37.346Z,13.23
2022-10-06T04:37:04.408Z,12.37
2022-10-06T04:39:31.692Z,13.43
2022-10-06T04:41:58.966Z,11.90
2022-10-06T04:44:29.237Z,14.50
2022-10-06T04:47:00.510Z,14.67
2022-10-06T04:49:27.634Z,21.63
2022-10-06T04:51:56.418Z,12.30
2022-10-06T04:54:23.747Z,16.90
2022-10-06T04:56:56.691Z,13.37
2022-10-06T04:59:45.059Z,11.40
2022-10-06T05:02:13.940Z,10.93
2022-10-06T05:04:42.383Z,13.30
2022-10-06T05:07:10.124Z,17.33
2022-10-06T05:09:37.281Z,12.67
2022-10-06T05:12:04.597Z,17.70
2022-10-06T05:14:33.346Z,15.90
2022-10-06T05:17:00.884Z,15.50
2022-10-06T05:19:29.472Z,15.47
2022-10-06T05:21:57.118Z,17.90
2022-10-06T05:24:27.159Z,17.87
2022-10-06T05:26:57.238Z,11.40
2022-10-06T05:29:26.460Z,12.77
2022-10-06T05:31:53.779Z,10.70
2022-10-06T05:34:22.083Z,9.70
2022-10-06T05:36:49.214Z,9.30
2022-10-06T05:39:16.354Z,12.43
2022-10-06T05:41:47.379Z,12.53
2022-10-06T05:44:14.643Z,13.00
2022-10-06T05:46:43.375Z,13.83
2022-10-06T05:49:12.356Z,11.03
2022-10-06T05:51:44.136Z,9.03
2022-10-06T05:54:16.290Z,13.77
2022-10-06T05:56:43.426Z,17.63
2022-10-06T05:59:11.093Z,12.20
2022-10-06T06:01:42.660Z,12.70
2022-10-06T06:04:32.453Z,14.93
2022-10-06T06:07:00.348Z,10.27
2022-10-06T06:09:29.034Z,14.53
2022-10-06T06:12:00.533Z,13.17
2022-10-06T06:15:06.591Z,8.53
2022-10-06T06:17:39.430Z,12.10
2022-10-06T06:20:07.444Z,14.32
2022-10-06T06:22:35.862Z,15.63
2022-10-06T06:25:04.508Z,13.95
2022-10-06T06:27:31.458Z,13.93
2022-10-06T06:29:59.033Z,8.25
2022-10-06T06:32:27.920Z,13.23
2022-10-06T06:34:55.239Z,16.60
2022-10-06T06:37:22.176Z,11.27
2022-10-06T06:39:49.372Z,17.40
2022-10-06T06:42:17.157Z,14.77
2022-10-06T06:45:16.031Z,15.10
2022-10-06T06:48:03.366Z,12.02
2022-10-06T06:50:32.475Z,15.95
2022-10-06T06:53:02.456Z,9.15
2022-10-06T06:55:30.624Z,11.38
2022-10-06T06:57:57.560Z,10.73
2022-10-06T07:00:25.151Z,10.65
2022-10-06T07:03:00.842Z,13.70
2022-10-06T07:05:30.464Z,9.45
2022-10-06T07:07:57.562Z,10.65
2022-10-06T07:10:27.574Z,13.13
2022-10-06T07:12:54.758Z,12.30
2022-10-06T07:15:40.296Z,14.98
2022-10-06T07:18:29.187Z,13.70
2022-10-06T07:21:14.939Z,9.75
2022-10-06T07:24:00.377Z,8.70
2022-10-06T07:26:31.030Z,13.23
2022-10-06T07:29:01.811Z,15.27
2022-10-06T07:31:36.451Z,14.18
2022-10-06T07:34:06.624Z,12.93
2022-10-06T07:36:33.964Z,15.90
2022-10-06T07:39:01.015Z,15.85
2022-10-06T07:41:30.780Z,12.25
2022-10-06T07:44:04.574Z,11.07
2022-10-06T07:46:34.444Z,12.27
2022-10-06T07:49:24.132Z,13.68
2022-10-06T07:51:51.546Z,11.77
2022-10-06T07:54:18.623Z,13.93
2022-10-06T07:56:45.565Z,15.52
2022-10-06T07:59:12.863Z,11.82
2022-10-06T08:01:40.362Z,15.80
2022-10-06T08:04:07.441Z,14.00
2022-10-06T08:06:34.841Z,17.65
2022-10-06T08:09:02.241Z,21.23
2022-10-06T08:11:29.232Z,14.85
2022-10-06T08:13:56.213Z,12.35
2022-10-06T08:16:30.133Z,15.30
2022-10-06T08:18:59.412Z,11.60
2022-10-06T08:21:31.321Z,10.90
2022-10-06T08:23:59.315Z,14.57
2022-10-06T08:26:27.395Z,16.45
2022-10-06T08:29:02.925Z,17.40
2022-10-06T08:31:31.057Z,15.40
2022-10-06T08:33:58.272Z,12.98
2022-10-06T08:36:30.906Z,13.60
2022-10-06T08:39:00.106Z,14.45
2022-10-06T08:41:36.490Z,13.40
2022-10-06T08:44:23.801Z,14.95
2022-10-06T08:46:56.664Z,20.80
2022-10-06T08:49:27.296Z,12.93
2022-10-06T08:52:13.542Z,13.10
2022-10-06T08:55:16.143Z,10.57
2022-10-06T08:57:58.685Z,11.85
2022-10-06T09:00:25.675Z,11.25
2022-10-06T09:02:56.438Z,11.55
2022-10-06T09:05:26.431Z,14.95
2022-10-06T09:08:04.967Z,10.23
2022-10-06T09:10:43.208Z,10.55
2022-10-06T09:13:21.714Z,10.05
2022-10-06T09:16:09.012Z,13.30
2022-10-06T09:19:21.024Z,13.27
2022-10-06T09:21:50.027Z,10.45
2022-10-06T09:24:20.302Z,11.52
2022-10-06T09:26:50.779Z,9.23
2022-10-06T09:29:17.826Z,10.13
2022-10-06T09:31:50.888Z,11.15
2022-10-06T09:34:34.933Z,13.00
2022-10-06T09:37:09.271Z,11.93
2022-10-06T09:39:38.666Z,10.98
2022-10-06T09:42:24.461Z,18.27
2022-10-06T09:44:51.411Z,9.77
2022-10-06T09:47:33.395Z,10.50
2022-10-06T09:50:20.310Z,11.77
2022-10-06T09:53:03.382Z,10.85
2022-10-06T09:55:39.569Z,9.15
2022-10-06T09:58:18.339Z,9.07
2022-10-06T10:01:03.416Z,9.05
2022-10-06T10:04:18.878Z,12.30
2022-10-06T10:06:41.750Z,12.25
2022-10-06T10:09:24.292Z,13.20
2022-10-06T10:12:31.271Z,10.23
2022-10-06T10:15:01.957Z,8.98
2022-10-06T10:17:34.771Z,7.68
2022-10-06T10:20:03.027Z,9.23
2022-10-06T10:22:40.027Z,8.07
2022-10-06T10:25:44.665Z,11.05
2022-10-06T10:28:17.378Z,10.55
2022-10-06T10:31:14.233Z,10.65
2022-10-06T10:34:29.983Z,9.02
2022-10-06T10:37:06.106Z,11.15
2022-10-06T10:39:54.815Z,8.65
2022-10-06T10:43:01.103Z,9.40
2022-10-06T10:45:36.104Z,10.77
2022-10-06T10:49:00.679Z,11.35
2022-10-06T10:51:42.668Z,11.00
2022-10-06T10:54:19.617Z,9.73
2022-10-06T10:56:49.413Z,9.80
2022-10-06T10:59:39.251Z,9.18
2022-10-06T11:02:21.482Z,7.18
2022-10-06T11:04:56.603Z,10.55
2022-10-06T11:07:44.798Z,10.15
2022-10-06T11:10:23.096Z,11.23
2022-10-06T11:13:19.116Z,11.25
2022-10-06T11:15:57.851Z,9.77
2022-10-06T11:18:47.000Z,11.27
2022-10-06T11:21:26.374Z,7.97
2022-10-06T11:24:15.587Z,10.68
2022-10-06T11:27:24.587Z,9.27
2022-10-06T11:30:06.693Z,6.78
2022-10-06T11:32:52.354Z,8.23
2022-10-06T11:35:23.097Z,6.53
2022-10-06T11:37:59.758Z,6.95
2022-10-06T11:40:35.574Z,11.82
2022-10-06T11:43:27.808Z,13.70
2022-10-06T11:46:04.601Z,10.60
2022-10-06T11:48:33.009Z,8.77
2022-10-06T11:51:26.238Z,7.95
2022-10-06T11:53:55.557Z,7.07
2022-10-06T11:56:24.207Z,8.65
2022-10-06T11:58:51.041Z,10.50
2022-10-06T12:01:35.249Z,9.50
2022-10-06T12:04:05.473Z,6.85
2022-10-06T12:06:44.903Z,7.82
2022-10-06T12:09:31.143Z,5.63
2022-10-06T12:12:19.418Z,8.95
2022-10-06T12:18:07.027Z,6.57
2022-10-06T12:21:09.371Z,9.85
2022-10-06T12:23:58.074Z,13.05
2022-10-06T12:26:40.063Z,8.20
2022-10-06T12:29:26.384Z,7.43
2022-10-06T12:32:13.079Z,7.93
2022-10-06T12:34:40.029Z,7.90
2022-10-06T12:37:28.990Z,8.20
2022-10-06T12:40:33.456Z,7.03
2022-10-06T12:43:18.258Z,9.32
2022-10-06T12:45:57.060Z,8.68
2022-10-06T12:48:40.382Z,9.57
2022-10-06T12:51:07.379Z,9.25
2022-10-06T12:53:53.804Z,8.15
2022-10-06T12:56:28.638Z,9.00
2022-10-06T12:58:56.078Z,7.65
2022-10-06T13:01:24.083Z,4.88
2022-10-06T13:03:52.592Z,8.77
2022-10-06T13:06:23.398Z,7.32
2022-10-06T13:09:06.044Z,12.73
2022-10-06T13:11:33.062Z,9.63
2022-10-06T13:14:16.231Z,7.97
2022-10-06T13:16:46.754Z,8.55
2022-10-06T13:19:27.068Z,7.15
2022-10-06T13:21:54.983Z,8.68
2022-10-06T13:24:26.719Z,7.03
2022-10-06T13:26:54.543Z,10.88
2022-10-06T13:29:25.986Z,8.13
2022-10-06T13:31:55.096Z,6.50
2022-10-06T13:34:33.184Z,11.32
2022-10-06T13:37:01.278Z,11.00
2022-10-06T13:39:32.272Z,9.73
2022-10-06T13:42:17.718Z,6.63
2022-10-06T13:44:44.612Z,9.07
2022-10-06T13:47:18.704Z,8.10
2022-10-06T13:49:51.554Z,5.15
2022-10-06T13:52:24.633Z,8.70
2022-10-06T13:54:58.895Z,10.48
2022-10-06T13:57:45.948Z,8.15
2022-10-06T14:00:15.883Z,9.18
2022-10-06T14:02:45.381Z,6.53
2022-10-06T14:05:41.410Z,8.50
2022-10-06T14:08:11.304Z,7.97
2022-10-06T14:10:41.211Z,6.32
2022-10-06T14:13:26.991Z,6.25
2022-10-06T14:15:59.067Z,11.43
2022-10-06T14:18:42.849Z,10.90
2022-10-06T14:21:39.796Z,5.10
2022-10-06T14:24:15.780Z,6.18
2022-10-06T14:26:44.455Z,4.57
2022-10-06T14:29:13.492Z,6.18
2022-10-06T14:31:40.423Z,8.73
2022-10-06T14:34:14.397Z,12.60
2022-10-06T14:36:43.805Z,5.03
2022-10-06T14:39:13.358Z,7.07
2022-10-06T14:41:40.800Z,8.23
2022-10-06T14:44:11.459Z,6.32
2022-10-06T14:46:40.158Z,7.90
2022-10-06T14:49:09.716Z,7.20
2022-10-06T14:51:38.447Z,7.82
2022-10-06T14:54:07.466Z,6.63
2022-10-06T14:56:37.338Z,7.50
2022-10-06T14:59:06.467Z,4.55
2022-10-06T15:01:35.424Z,5.20
2022-10-06T15:04:05.420Z,7.65
2022-10-06T15:06:50.853Z,5.22
2022-10-06T15:09:18.096Z,5.93
2022-10-06T15:11:45.338Z,6.15
2022-10-06T15:14:12.473Z,11.93
2022-10-06T15:16:42.239Z,7.80
2022-10-06T15:19:11.023Z,6.65
2022-10-06T15:21:45.108Z,5.13
2022-10-06T15:24:14.344Z,7.57
2022-10-06T15:27:00.375Z,4.90
2022-10-06T15:29:27.474Z,5.90
2022-10-06T15:31:55.226Z,6.38
2022-10-06T15:34:27.193Z,8.30
2022-10-06T15:36:55.434Z,4.30
2022-10-06T15:39:25.843Z,9.60
2022-10-06T15:41:53.319Z,7.95
2022-10-06T15:44:20.799Z,5.75
2022-10-06T15:46:56.995Z,7.03
2022-10-06T15:49:25.674Z,7.32
2022-10-06T15:51:58.265Z,6.80
2022-10-06T15:54:33.793Z,3.92
2022-10-06T15:57:03.589Z,7.97
2022-10-06T15:59:32.662Z,8.63
2022-10-06T16:02:03.832Z,7.32
2022-10-06T16:04:39.361Z,7.32
2022-10-06T16:07:10.219Z,6.43
2022-10-06T16:09:44.900Z,8.55
2022-10-06T16:12:16.231Z,7.30
2022-10-06T16:14:43.429Z,8.00
2022-10-06T16:17:11.957Z,5.80
2022-10-06T16:19:42.267Z,7.22
2022-10-06T16:22:13.531Z,7.72
2022-10-06T16:24:40.871Z,8.82
2022-10-06T16:27:14.774Z,9.32
2022-10-06T16:29:41.759Z,8.07
2022-10-06T16:32:09.080Z,8.50
2022-10-06T16:34:36.107Z,7.90
2022-10-06T16:37:03.056Z,4.50
2022-10-06T16:39:29.957Z,7.68
2022-10-06T16:41:56.860Z,15.15
2022-10-06T16:44:23.953Z,10.60
2022-10-06T16:46:50.948Z,7.88
2022-10-06T16:49:18.040Z,8.38
2022-10-06T16:51:48.166Z,7.10
2022-10-06T16:54:17.370Z,10.25
2022-10-06T16:56:51.748Z,7.03
2022-10-06T16:59:23.546Z,12.05
2022-10-06T17:01:50.845Z,4.43
2022-10-06T17:04:23.227Z,9.02
2022-10-06T17:06:55.338Z,8.23
2022-10-06T17:09:24.560Z,10.43
2022-10-06T17:11:57.484Z,9.57
2022-10-06T17:14:25.177Z,10.73
2022-10-06T17:16:53.826Z,7.97
2022-10-06T17:19:22.787Z,4.70
2022-10-06T17:21:55.710Z,7.60
2022-10-06T17:24:28.012Z,10.47
2022-10-06T17:26:55.969Z,7.83
2022-10-06T17:29:23.621Z,9.50
2022-10-06T17:31:59.419Z,8.50
2022-10-06T17:34:31.676Z,9.47
2022-10-06T17:36:59.363Z,8.27
2022-10-06T17:39:26.303Z,25.37
2022-10-06T17:41:54.059Z,46.03
2022-10-06T17:44:24.253Z,58.23
2022-10-06T17:46:53.876Z,74.47
2022-10-06T17:49:22.468Z,90.23
2022-10-06T17:51:50.459Z,43.83
2022-10-06T17:54:20.151Z,18.03
2022-10-06T17:56:49.422Z,11.70
2022-10-06T17:59:18.789Z,7.57
2022-10-06T18:01:45.968Z,8.33
2022-10-06T18:04:17.365Z,9.03
2022-10-06T18:06:46.220Z,11.60
2022-10-06T18:09:14.627Z,9.10
2022-10-06T18:11:44.230Z,10.00
2022-10-06T18:14:16.544Z,14.10
2022-10-06T18:16:46.042Z,12.43
2022-10-06T18:19:19.436Z,7.33
2022-10-06T18:21:47.930Z,10.47
2022-10-06T18:24:23.627Z,9.13
2022-10-06T18:26:53.265Z,12.07
2022-10-06T18:29:22.758Z,15.70
2022-10-06T18:31:51.617Z,11.70
2022-10-06T18:37:09.474Z,10.83
2022-10-06T18:39:36.339Z,9.53
2022-10-06T18:42:05.464Z,12.57
2022-10-06T18:44:50.815Z,7.60
2022-10-06T18:47:36.243Z,15.50
2022-10-06T18:50:03.396Z,14.60
2022-10-06T18:52:30.385Z,9.43
2022-10-06T18:54:57.314Z,11.07
2022-10-06T18:57:27.684Z,10.00
2022-10-06T18:59:55.414Z,12.83
2022-10-06T19:02:22.739Z,9.53
2022-10-06T19:04:50.003Z,12.57
2022-10-06T19:07:17.005Z,9.53
2022-10-06T19:09:46.753Z,8.07
2022-10-06T19:12:17.479Z,10.73
2022-10-06T19:14:47.773Z,11.70
2022-10-06T19:17:15.411Z,14.63
2022-10-06T19:19:55.371Z,15.33
2022-10-06T19:22:24.799Z,9.23
2022-10-06T19:24:52.319Z,7.37
2022-10-06T19:27:24.190Z,8.97
2022-10-06T19:29:56.749Z,8.50
2022-10-06T19:32:31.160Z,11.97
2022-10-06T19:34:58.770Z,10.73
2022-10-06T19:37:30.040Z,12.00
2022-10-06T19:39:57.106Z,10.33
2022-10-06T19:42:42.925Z,8.80
2022-10-06T19:45:12.061Z,7.03
2022-10-06T19:47:40.134Z,7.37
2022-10-06T19:50:12.242Z,9.07
2022-10-06T19:52:40.760Z,6.43
2022-10-06T19:55:07.970Z,8.27
2022-10-06T19:57:35.006Z,9.20
2022-10-06T20:00:01.958Z,10.40
2022-10-06T20:02:43.289Z,8.77
2022-10-06T20:05:16.116Z,5.70
2022-10-06T20:07:45.579Z,11.57
2022-10-06T20:10:13.305Z,8.37
2022-10-06T20:12:41.583Z,8.13
2022-10-06T20:15:09.852Z,13.17
2022-10-06T20:17:36.864Z,11.07
2022-10-06T20:20:04.335Z,9.93
2022-10-06T20:22:31.798Z,6.57
2022-10-06T20:24:58.945Z,10.50
2022-10-06T20:27:25.860Z,17.13
2022-10-06T20:29:53.782Z,15.57
2022-10-06T20:32:21.404Z,9.43
2022-10-06T20:34:48.365Z,8.07
2022-10-06T20:37:15.442Z,7.27
2022-10-06T20:40:00.790Z,12.60
2022-10-06T20:42:28.045Z,7.70
2022-10-06T20:44:55.137Z,8.70
2022-10-06T20:47:22.702Z,7.47
2022-10-06T20:49:55.297Z,8.37
2022-10-06T20:52:24.251Z,11.07
2022-10-06T20:54:51.336Z,14.67
2022-10-06T20:57:18.565Z,19.20
2022-10-06T20:59:46.243Z,30.37
2022-10-06T21:02:13.466Z,25.87
2022-10-06T21:04:43.619Z,28.57
2022-10-06T21:07:11.281Z,36.33
2022-10-06T21:09:41.577Z,32.43
2022-10-06T21:12:08.584Z,22.77
2022-10-06T21:14:37.709Z,16.83
2022-10-06T21:17:05.339Z,17.03
2022-10-06T21:19:37.880Z,12.27
2022-10-06T21:22:05.366Z,12.80
2022-10-06T21:24:32.281Z,11.07
2022-10-06T21:26:59.737Z,19.73
2022-10-06T21:29:27.327Z,15.17
2022-10-06T21:31:55.350Z,20.27
2022-10-06T21:34:22.240Z,13.37
2022-10-06T21:36:49.416Z,12.70
2022-10-06T21:39:16.473Z,10.30
2022-10-06T21:41:43.399Z,9.90
2022-10-06T21:44:14.609Z,9.03
2022-10-06T21:46:52.816Z,15.80
2022-10-06T21:49:24.444Z,7.27
2022-10-06T21:51:53.830Z,17.00
2022-10-06T21:54:21.926Z,11.17
2022-10-06T21:56:48.961Z,8.23
2022-10-06T21:59:16.252Z,8.47
2022-10-06T22:01:45.008Z,9.57
2022-10-06T22:04:14.335Z,10.93
2022-10-06T22:06:43.569Z,10.63
2022-10-06T22:09:14.471Z,9.50
2022-10-06T22:11:42.194Z,13.27
2022-10-06T22:14:14.714Z,13.57
2022-10-06T22:16:42.225Z,8.07
2022-10-06T22:19:11.681Z,9.53
2022-10-06T22:21:44.349Z,12.10
2022-10-06T22:24:21.484Z,15.37
2022-10-06T22:26:49.643Z,7.70
2022-10-06T22:29:18.609Z,17.37
2022-10-06T22:31:47.762Z,11.13
2022-10-06T22:34:17.560Z,9.33
2022-10-06T22:36:44.557Z,10.07
2022-10-06T22:39:11.692Z,12.67
2022-10-06T22:41:39.266Z,15.53
2022-10-06T22:44:06.335Z,12.10
2022-10-06T22:46:37.339Z,12.60
2022-10-06T22:49:05.785Z,13.37
2022-10-06T22:51:32.948Z,12.97
2022-10-06T22:54:00.436Z,8.17
2022-10-06T22:56:29.259Z,11.60
2022-10-06T22:58:59.589Z,12.83
2022-10-06T23:01:28.391Z,6.13
2022-10-06T23:03:55.817Z,8.70
2022-10-06T23:06:23.081Z,7.73
2022-10-06T23:08:50.162Z,9.43
2022-10-06T23:11:19.297Z,9.03
2022-10-06T23:13:48.368Z,10.10
2022-10-06T23:16:17.456Z,10.67
2022-10-06T23:18:45.289Z,12.77
2022-10-06T23:21:27.373Z,12.90
2022-10-06T23:23:58.377Z,9.83
2022-10-06T23:26:25.751Z,12.00
2022-10-06T23:28:58.579Z,8.27
2022-10-06T23:31:26.530Z,8.40
2022-10-06T23:33:54.921Z,11.93
2022-10-06T23:36:21.946Z,9.57
2022-10-06T23:38:49.103Z,8.67
2022-10-06T23:41:16.085Z,10.50
2022-10-06T23:43:43.598Z,7.40
2022-10-06T23:46:10.880Z,11.20
2022-10-06T23:48:38.187Z,12.10
2022-10-06T23:51:08.174Z,9.53
2022-10-06T23:53:35.595Z,6.30
2022-10-06T23:56:03.228Z,8.53
2022-10-06T23:58:30.213Z,9.50
